createdAt,value
2022-10-07T00:01:25.593Z,24.20
2022-10-07T00:04:52.613Z,27.30
2022-10-07T00:08:19.277Z,27.90
2022-10-07T00:11:47.782Z,26.90
2022-10-07T00:15:15.714Z,26.90
2022-10-07T00:18:43.133Z,28.00
2022-10-07T00:22:10.130Z,26.00
2022-10-07T00:25:39.043Z,26.40
2022-10-07T00:29:07.204Z,30.70
2022-10-07T00:32:34.083Z,25.00
2022-10-07T00:36:00.851Z,26.30
2022-10-07T00:39:28.148Z,29.70
2022-10-07T00:42:54.830Z,25.70
2022-10-07T00:46:29.754Z,22.70
2022-10-07T00:50:00.068Z,24.00
2022-10-07T00:53:32.290Z,19.50
2022-10-07T00:56:59.476Z,24.60
2022-10-07T01:00:26.990Z,20.60
2022-10-07T01:03:54.251Z,21.00
2022-10-07T01:07:22.046Z,23.60
2022-10-07T01:10:59.110Z,21.30
2022-10-07T01:14:40.104Z,22.00
2022-10-07T01:18:16.713Z,27.20
2022-10-07T01:21:56.259Z,21.10
2022-10-07T01:25:35.247Z,20.30
2022-10-07T01:29:05.782Z,21.90
2022-10-07T01:32:37.141Z,21.60
2022-10-07T01:36:09.597Z,23.60
2022-10-07T01:39:39.060Z,24.60
2022-10-07T01:43:06.851Z,20.60
2022-10-07T01:46:38.286Z,23.50
2022-10-07T01:50:07.569Z,20.50
2022-10-07T01:53:50.091Z,19.20
2022-10-07T01:57:26.569Z,23.30
2022-10-07T02:01:01.849Z,17.60
2022-10-07T02:04:43.597Z,15.90
2022-10-07T02:08:24.482Z,18.20
2022-10-07T02:11:58.695Z,21.60
2022-10-07T02:15:29.695Z,15.70
2022-10-07T02:18:57.828Z,20.30
2022-10-07T02:22:28.568Z,15.80
2022-10-07T02:25:57.876Z,24.60
2022-10-07T02:29:26.266Z,18.40
2022-10-07T02:33:00.548Z,19.10
2022-10-07T02:36:32.822Z,20.00
2022-10-07T02:40:01.174Z,17.50
2022-10-07T02:43:33.281Z,23.50
2022-10-07T02:47:07.444Z,20.70
2022-10-07T02:50:43.438Z,19.90
2022-10-07T02:54:10.198Z,16.30
2022-10-07T02:57:40.831Z,20.90
2022-10-07T03:01:10.611Z,19.10
2022-10-07T03:04:38.540Z,19.90
2022-10-07T03:08:08.947Z,20.90
2022-10-07T03:11:36.925Z,16.80
2022-10-07T03:15:04.593Z,17.60
2022-10-07T03:18:31.548Z,20.30
2022-10-07T03:22:24.381Z,18.90
2022-10-07T03:25:54.798Z,16.10
2022-10-07T03:29:22.097Z,22.60
2022-10-07T03:32:50.095Z,17.20
2022-10-07T03:36:17.434Z,18.10
2022-10-07T03:39:45.201Z,19.00
2022-10-07T03:43:12.049Z,16.50
2022-10-07T03:46:39.441Z,18.70
2022-10-07T03:50:11.715Z,21.50
2022-10-07T03:53:40.859Z,18.90
2022-10-07T03:57:27.832Z,17.40
2022-10-07T04:01:04.768Z,15.00
2022-10-07T04:04:32.804Z,13.40
2022-10-07T04:08:00.014Z,13.90
2022-10-07T04:11:27.284Z,14.90
2022-10-07T04:14:55.447Z,15.30
2022-10-07T04:18:22.733Z,14.30
2022-10-07T04:21:50.923Z,13.20
2022-10-07T04:25:36.908Z,20.60
2022-10-07T04:29:07.989Z,16.40
2022-10-07T04:32:35.582Z,14.00
2022-10-07T04:36:07.146Z,14.70
2022-10-07T04:39:59.271Z,13.90
2022-10-07T04:43:24.654Z,16.30
2022-10-07T04:47:00.702Z,13.00
2022-10-07T04:50:29.112Z,15.10
2022-10-07T04:53:58.042Z,14.00
2022-10-07T04:57:29.340Z,14.40
2022-10-07T05:00:57.460Z,16.30
2022-10-07T05:04:25.063Z,15.70
2022-10-07T05:07:55.384Z,21.30
2022-10-07T05:11:26.387Z,15.70
2022-10-07T05:14:58.464Z,17.50
2022-10-07T05:18:26.571Z,22.20
2022-10-07T05:21:55.127Z,14.90
2022-10-07T05:25:22.896Z,15.90
2022-10-07T05:28:49.939Z,14.30
2022-10-07T05:32:23.123Z,18.70
2022-10-07T05:35:50.543Z,21.80
2022-10-07T05:39:18.028Z,18.90
2022-10-07T05:42:49.875Z,22.50
2022-10-07T05:46:20.372Z,21.90
2022-10-07T05:49:51.505Z,18.60
2022-10-07T05:53:18.562Z,25.90
2022-10-07T05:56:46.797Z,23.00
2022-10-07T06:00:16.055Z,22.80
2022-10-07T06:03:50.694Z,20.80
2022-10-07T06:07:21.969Z,20.50
2022-10-07T06:11:08.707Z,20.30
2022-10-07T06:14:36.939Z,25.60
2022-10-07T06:18:09.954Z,24.20
2022-10-07T06:21:37.401Z,31.90
2022-10-07T06:25:04.239Z,28.30
2022-10-07T06:28:37.410Z,20.70
2022-10-07T06:32:05.525Z,20.20
2022-10-07T06:35:32.534Z,20.20
2022-10-07T06:38:59.299Z,18.90
2022-10-07T06:42:33.910Z,22.00
2022-10-07T06:46:21.164Z,20.40
2022-10-07T06:49:49.978Z,26.10
2022-10-07T06:53:16.981Z,27.40
2022-10-07T06:56:45.683Z,31.90
2022-10-07T07:00:15.594Z,27.70
2022-10-07T07:03:44.145Z,21.80
2022-10-07T07:07:11.906Z,27.80
2022-10-07T07:10:42.961Z,25.80
2022-10-07T07:14:13.803Z,43.20
2022-10-07T07:17:43.080Z,28.70
2022-10-07T07:21:11.503Z,25.90
2022-10-07T07:24:38.971Z,26.60
2022-10-07T07:28:06.713Z,33.00
2022-10-07T07:31:36.859Z,31.60
2022-10-07T07:35:04.731Z,25.00
2022-10-07T07:38:32.348Z,24.40
2022-10-07T07:41:59.341Z,25.00
2022-10-07T07:45:28.193Z,25.80
2022-10-07T07:48:58.764Z,27.80
2022-10-07T07:52:26.538Z,20.80
2022-10-07T07:55:59.222Z,19.70
2022-10-07T07:59:27.447Z,19.50
2022-10-07T08:02:56.054Z,23.60
2022-10-07T08:06:28.046Z,18.30
2022-10-07T08:09:54.602Z,21.40
2022-10-07T08:13:21.768Z,19.60
2022-10-07T08:16:49.065Z,21.00
2022-10-07T08:20:16.799Z,19.00
2022-10-07T08:23:44.304Z,26.30
2022-10-07T08:27:11.600Z,19.00
2022-10-07T08:30:38.351Z,18.90
2022-10-07T08:34:06.634Z,14.50
2022-10-07T08:37:35.409Z,14.10
2022-10-07T08:41:15.499Z,13.60
2022-10-07T08:44:46.388Z,9.70
2022-10-07T08:48:18.817Z,12.70
2022-10-07T08:51:49.056Z,10.60
2022-10-07T08:55:25.694Z,8.50
2022-10-07T08:59:04.030Z,8.90
2022-10-07T09:02:40.574Z,11.80
2022-10-07T09:06:14.045Z,10.90
2022-10-07T09:09:46.763Z,12.20
2022-10-07T09:13:20.334Z,16.90
2022-10-07T09:17:03.354Z,11.30
2022-10-07T09:20:36.267Z,10.10
2022-10-07T09:24:19.855Z,8.50
2022-10-07T09:31:17.013Z,9.50
2022-10-07T09:34:45.164Z,7.10
2022-10-07T09:38:12.246Z,8.40
2022-10-07T09:41:40.450Z,8.70
2022-10-07T09:45:21.313Z,13.00
2022-10-07T09:52:24.773Z,6.00
2022-10-07T09:55:54.042Z,6.60
2022-10-07T09:59:26.920Z,13.90
2022-10-07T10:03:01.156Z,5.90
2022-10-07T10:07:26.285Z,3.40
2022-10-07T10:10:55.955Z,5.80
2022-10-07T10:14:49.103Z,5.30
2022-10-07T10:18:34.852Z,8.80
2022-10-07T10:22:01.435Z,4.40
2022-10-07T10:25:55.048Z,5.50
2022-10-07T10:29:30.888Z,9.60
2022-10-07T10:33:18.732Z,8.30
2022-10-07T10:36:52.287Z,7.00
2022-10-07T10:40:28.043Z,3.70
2022-10-07T10:44:20.126Z,7.40
2022-10-07T10:48:07.712Z,5.90
2022-10-07T10:51:49.866Z,6.90
2022-10-07T10:55:37.087Z,7.20
2022-10-07T10:59:22.539Z,8.00
2022-10-07T11:03:19.447Z,5.30
2022-10-07T11:06:49.977Z,7.70
2022-10-07T11:10:22.859Z,8.20
2022-10-07T11:13:54.690Z,5.50
2022-10-07T11:17:26.042Z,9.70
2022-10-07T11:20:54.276Z,4.50
2022-10-07T11:24:28.859Z,6.30
2022-10-07T11:28:01.175Z,6.40
2022-10-07T11:31:37.210Z,6.90
2022-10-07T11:35:26.116Z,5.50
2022-10-07T11:38:54.291Z,10.30
2022-10-07T11:42:24.862Z,6.70
2022-10-07T11:45:56.958Z,7.80
2022-10-07T11:49:30.505Z,10.70
2022-10-07T11:53:06.469Z,8.40
2022-10-07T11:56:39.152Z,8.80
2022-10-07T12:00:09.585Z,6.00
2022-10-07T12:03:52.116Z,9.80
2022-10-07T12:07:40.700Z,6.60
2022-10-07T12:11:44.058Z,9.20
2022-10-07T12:15:33.005Z,3.70
2022-10-07T12:19:23.041Z,10.70
2022-10-07T12:23:22.248Z,7.80
2022-10-07T12:26:59.763Z,7.30
2022-10-07T12:30:53.477Z,12.90
2022-10-07T12:34:35.865Z,6.90
2022-10-07T12:38:20.247Z,6.00
2022-10-07T12:41:48.323Z,6.50
2022-10-07T12:45:20.503Z,8.70
2022-10-07T12:48:52.923Z,8.50
2022-10-07T12:52:25.134Z,10.20
2022-10-07T12:55:55.839Z,8.40
2022-10-07T12:59:48.657Z,6.50
2022-10-07T13:03:47.571Z,7.90
2022-10-07T13:08:02.294Z,7.30
2022-10-07T13:12:04.020Z,5.90
2022-10-07T13:15:44.635Z,6.60
2022-10-07T13:19:30.936Z,5.10
2022-10-07T13:23:10.989Z,6.20
2022-10-07T13:26:45.770Z,7.90
2022-10-07T13:30:37.545Z,5.20
2022-10-07T13:34:19.938Z,4.70
2022-10-07T13:37:49.921Z,12.80
2022-10-07T13:41:26.812Z,7.30
2022-10-07T13:45:00.969Z,4.20
2022-10-07T13:48:35.229Z,6.80
2022-10-07T13:52:04.640Z,5.10
2022-10-07T13:55:33.934Z,8.20
2022-10-07T13:59:01.818Z,7.50
2022-10-07T14:02:29.367Z,5.20
2022-10-07T14:05:56.859Z,5.80
2022-10-07T14:09:38.653Z,4.00
2022-10-07T14:13:10.009Z,7.40
2022-10-07T14:16:38.506Z,4.60
2022-10-07T14:20:18.143Z,5.60
2022-10-07T14:23:52.768Z,8.00
2022-10-07T14:27:56.388Z,8.00
2022-10-07T14:31:45.470Z,7.00
2022-10-07T14:35:24.793Z,5.90
2022-10-07T14:38:56.181Z,5.30
2022-10-07T14:42:26.443Z,5.40
2022-10-07T14:45:54.285Z,7.40
2022-10-07T14:49:21.730Z,4.50
2022-10-07T14:52:52.612Z,5.70
2022-10-07T14:56:26.421Z,13.40
2022-10-07T14:59:55.317Z,7.90
2022-10-07T15:03:26.229Z,8.30
2022-10-07T15:06:55.119Z,5.60
2022-10-07T15:10:24.263Z,7.90
2022-10-07T15:13:52.762Z,4.80
2022-10-07T15:17:19.506Z,3.40
2022-10-07T15:20:47.385Z,5.00
2022-10-07T15:24:15.555Z,7.90
2022-10-07T15:27:45.809Z,7.40
2022-10-07T15:31:14.401Z,6.40
2022-10-07T15:34:41.507Z,8.30
2022-10-07T15:38:11.207Z,11.50
2022-10-07T15:41:40.857Z,12.20
2022-10-07T15:45:10.486Z,12.60
2022-10-07T15:48:38.707Z,14.10
2022-10-07T15:52:06.398Z,16.30
2022-10-07T15:55:33.860Z,15.10
2022-10-07T15:59:02.432Z,11.40
2022-10-07T16:02:29.965Z,10.40
2022-10-07T16:06:02.406Z,11.80
2022-10-07T16:09:30.002Z,15.10
2022-10-07T16:12:57.844Z,12.50
2022-10-07T16:16:26.890Z,8.90
2022-10-07T16:19:54.110Z,15.00
2022-10-07T16:23:21.069Z,13.00
2022-10-07T16:26:53.581Z,9.60
2022-10-07T16:30:37.995Z,6.60
2022-10-07T16:34:05.539Z,9.40
2022-10-07T16:37:34.581Z,18.00
2022-10-07T16:41:02.633Z,16.70
2022-10-07T16:44:29.901Z,13.50
2022-10-07T16:48:00.354Z,20.60
2022-10-07T16:51:30.457Z,13.90
2022-10-07T16:54:58.288Z,15.50
2022-10-07T16:58:25.138Z,12.10
2022-10-07T17:01:54.913Z,8.80
2022-10-07T17:05:22.136Z,10.30
2022-10-07T17:08:50.868Z,13.80
2022-10-07T17:12:18.645Z,10.50
2022-10-07T17:15:50.394Z,11.30
2022-10-07T17:22:46.857Z,9.90
2022-10-07T17:26:15.544Z,13.00
2022-10-07T17:29:46.739Z,12.10
2022-10-07T17:33:17.254Z,17.80
2022-10-07T17:38:27.164Z,22.80
2022-10-07T17:41:53.695Z,22.80
2022-10-07T17:45:20.489Z,21.90
2022-10-07T17:48:50.736Z,24.40
2022-10-07T17:52:26.566Z,32.80
2022-10-07T17:55:56.200Z,31.40
2022-10-07T17:59:24.205Z,21.00
2022-10-07T18:02:54.558Z,24.00
2022-10-07T18:06:23.921Z,23.30
2022-10-07T18:09:51.637Z,26.30
2022-10-07T18:13:36.874Z,26.40
2022-10-07T18:17:04.151Z,26.10
2022-10-07T18:20:31.690Z,25.80
2022-10-07T18:24:01.487Z,25.00
2022-10-07T18:27:33.408Z,28.50
2022-10-07T18:31:12.017Z,33.00
2022-10-07T18:34:39.872Z,38.80
2022-10-07T18:38:09.397Z,31.50
2022-10-07T18:41:36.372Z,35.80
2022-10-07T18:45:03.185Z,30.40
2022-10-07T18:48:32.309Z,26.40
2022-10-07T18:56:18.673Z,28.50
2022-10-07T18:59:47.386Z,33.40
2022-10-07T19:03:14.508Z,24.70
2022-10-07T19:06:46.255Z,33.60
2022-10-07T19:10:15.466Z,30.60
2022-10-07T19:13:55.746Z,36.60
2022-10-07T19:17:26.461Z,35.60
2022-10-07T19:21:04.307Z,37.00
2022-10-07T19:24:44.861Z,36.80
2022-10-07T19:28:11.686Z,42.50
2022-10-07T19:31:40.720Z,41.60
2022-10-07T19:35:08.523Z,44.20
2022-10-07T19:38:39.339Z,44.90
2022-10-07T19:42:06.158Z,57.80
2022-10-07T19:45:35.660Z,66.40
2022-10-07T19:49:04.286Z,61.40
2022-10-07T19:52:31.410Z,75.20
2022-10-07T19:56:01.038Z,74.30
2022-10-07T19:59:29.783Z,75.50
2022-10-07T20:02:58.167Z,74.40
2022-10-07T20:06:26.015Z,67.00
2022-10-07T20:09:53.549Z,74.30
2022-10-07T20:13:24.195Z,71.70
2022-10-07T20:16:52.444Z,72.40
2022-10-07T20:20:21.589Z,69.70
2022-10-07T20:23:52.304Z,68.70
2022-10-07T20:27:20.319Z,73.30
2022-10-07T20:30:47.689Z,73.60
2022-10-07T20:34:20.477Z,72.30
2022-10-07T20:37:48.639Z,59.30
2022-10-07T20:41:41.862Z,60.00
2022-10-07T20:45:10.191Z,59.20
2022-10-07T20:48:46.472Z,54.90
2022-10-07T20:52:17.323Z,49.90
2022-10-07T20:55:53.981Z,55.60
2022-10-07T20:59:21.803Z,50.40
2022-10-07T21:02:50.259Z,48.10
2022-10-07T21:06:22.559Z,50.40
2022-10-07T21:09:51.942Z,36.30
2022-10-07T21:13:22.039Z,38.40
2022-10-07T21:16:49.279Z,35.60
2022-10-07T21:20:17.422Z,41.90
2022-10-07T21:23:44.110Z,34.20
2022-10-07T21:27:11.818Z,32.30
2022-10-07T21:30:39.670Z,33.50
2022-10-07T21:34:09.035Z,28.70
2022-10-07T21:37:38.427Z,26.70
2022-10-07T21:41:14.601Z,32.50
2022-10-07T21:44:43.268Z,27.10
2022-10-07T21:48:11.205Z,24.70
2022-10-07T21:51:40.249Z,26.80
2022-10-07T21:55:10.699Z,27.00
2022-10-07T21:58:37.813Z,25.80
2022-10-07T22:02:05.650Z,32.20
2022-10-07T22:05:38.713Z,29.50
2022-10-07T22:09:07.659Z,23.70
2022-10-07T22:12:41.399Z,25.90
2022-10-07T22:16:14.892Z,24.00
2022-10-07T22:19:42.296Z,27.60
2022-10-07T22:23:09.603Z,29.60
2022-10-07T22:26:41.274Z,35.80
2022-10-07T22:30:12.390Z,25.70
2022-10-07T22:33:45.055Z,24.10
2022-10-07T22:37:14.313Z,29.90
2022-10-07T22:40:41.505Z,27.30
2022-10-07T22:44:08.932Z,29.30
2022-10-07T22:47:37.750Z,28.40
2022-10-07T22:51:08.703Z,22.40
2022-10-07T22:54:36.127Z,29.20
2022-10-07T22:58:03.456Z,28.80
2022-10-07T23:01:32.025Z,24.50
2022-10-07T23:05:01.787Z,22.80
2022-10-07T23:08:28.818Z,26.50
2022-10-07T23:11:55.644Z,28.60
2022-10-07T23:15:23.125Z,27.70
2022-10-07T23:18:54.746Z,32.10
2022-10-07T23:22:22.136Z,28.40
2022-10-07T23:25:48.676Z,29.40
2022-10-07T23:29:16.028Z,29.80
2022-10-07T23:32:46.018Z,28.30
2022-10-07T23:36:13.289Z,33.70
2022-10-07T23:39:42.428Z,29.90
2022-10-07T23:43:09.547Z,30.10
2022-10-07T23:46:37.728Z,25.10
2022-10-07T23:50:04.466Z,29.50
2022-10-07T23:53:31.459Z,23.50
2022-10-07T23:56:58.184Z,24.60
